Terminal Aerodrome Forecast
Issued by NWS

Home | Current Version | Previous Version | Text Only | Print | Product List | Glossary On
Versions: 1 2 3 4 5 6 7 8 9 10 11 12 13
000
FTUS43 KIND 011724
TAFHUF
TAF
KHUF 011724Z 0118/0218 32005KT P6SM SKC
     FM012000 27009KT P6SM FEW050 SCT250
     FM020100 20002KT P6SM SCT250
     FM021500 21007KT P6SM SCT250=

USA.gov is the U.S. government's official web portal to all federal, state and local government web resources and services.